Aviation Digital Data Service (ADDS)

Output produced by METARs form (2047 UTC 01 December 2021)
found at http://aviationweather.gov/metar/data/
 
KCXO 011953Z 22005KT 10SM FEW036 24/15 A3010 RMK AO2 SLP190 T02440150
KCXO 011720Z 0118/0218 21008KT P6SM FEW030 SCT250 
     FM020100 VRB03KT P6SM SCT250 
     FM020400 VRB02KT 4SM BR SCT005 SCT250 
     TEMPO 0205/0208 1SM BR BKN002 
     FM020800 00000KT 1/4SM FG VV001 
     FM021500 VRB03KT 4SM BR SCT010 
     FM021700 20006KT P6SM SCT250